Latest Weather Observations for Kingscote

IDS60801

Issued at 6:31 am CDT Friday 6 March 2015 (issued every 30 minutes, with the page automatically refreshed every 10 minutes)

About weather observations | Map of weather stations | Latest weather observations for SA | Other Formats
Station Details ID: 022841 Name: KINGSCOTE AERO Lat: -35.71 Lon: 137.52 Height: 6.23 m
Data from the previous 72 hours. | See also: Recent months at Kingscote
Date/Time
CDT
Temp
°C
App
Temp
°C
Dew
Point
Rel
Hum
%
Delta-T
°C
Wind Press
QNH
hPa
Press
MSL
hPa
Rain
since 9 am
mm
Dir
 
Spd
km/h
Gust
km/h
Spd
kts
Gust
kts
06/06:30am 13.0 10.9 9.8 81 1.6 W 11 13 6 7 1019.1 1019.1 0.0
06/06:00am 12.3 10.1 9.5 83 1.4 W 11 13 6 7 1019.1 1019.1 0.0
06/05:30am 11.4 9.1 9.1 86 1.1 WNW 11 13 6 7 1019.2 1019.2 0.0
06/05:00am 10.7 7.5 8.3 85 1.2 NW 15 17 8 9 1019.4 1019.4 0.0
06/04:30am 10.6 7.4 8.4 86 1.1 WNW 15 17 8 9 1019.4 1019.4 0.0
06/04:00am 10.4 7.5 8.0 85 1.2 WNW 13 17 7 9 1019.4 1019.4 0.0
06/03:30am 10.1 7.1 7.5 84 1.2 NW 13 15 7 8 1019.5 1019.5 0.0
06/03:00am 10.0 6.9 7.4 84 1.2 WNW 13 15 7 8 1020.0 1020.0 0.0
06/02:30am 10.0 7.7 7.3 83 1.3 WNW 9 11 5 6 1020.4 1020.4 0.0
06/02:00am 10.5 7.4 7.2 80 1.6 NW 13 15 7 8 1020.6 1020.6 0.0
06/01:30am 11.0 7.9 7.1 77 1.9 NW 13 15 7 8 1021.2 1021.2 0.0
06/01:00am 11.8 8.8 7.5 75 2.1 NW 13 15 7 8 1021.7 1021.7 0.0
06/12:30am 11.3 9.0 7.6 78 1.8 WNW 9 11 5 6 1022.0 1022.0 0.0
06/12:00am 11.9 9.2 7.4 74 2.2 WNW 11 13 6 7 1022.1 1022.1 0.0
 
Date/Time
CDT
Temp
°C
App
Temp
°C
Dew
Point
Rel
Hum
%
Delta-T
°C
Wind Press
QNH
hPa
Press
MSL
hPa
Rain
since 9 am
mm
Dir
 
Spd
km/h
Gust
km/h
Spd
kts
Gust
kts
05/11:30pm 11.4 9.0 6.9 74 2.1 W 9 11 5 6 1022.4 1022.4 0.0
05/11:00pm 11.9 9.9 7.2 73 2.3 W 7 9 4 5 1022.5 1022.5 0.0
05/10:30pm 12.6 9.9 7.5 71 2.5 W 11 13 6 7 1022.8 1022.8 0.0
05/10:00pm 12.5 9.9 7.6 72 2.4 W 11 11 6 6 1022.9 1022.9 0.0
05/09:30pm 12.5 9.8 7.2 70 2.5 SW 11 13 6 7 1022.9 1022.9 0.0
05/09:00pm 13.3 9.9 7.5 68 2.8 SW 15 20 8 11 1022.8 1022.8 0.0
05/08:30pm 14.3 11.3 7.6 64 3.3 SW 13 20 7 11 1022.6 1022.6 0.0
05/08:00pm 14.9 10.6 7.7 62 3.6 SW 20 28 11 15 1022.6 1022.6 0.0
05/07:30pm 15.9 10.8 7.7 58 4.1 SSW 24 32 13 17 1022.6 1022.6 0.0
05/07:00pm 17.0 10.7 7.6 54 4.7 SSW 30 37 16 20 1022.1 1022.1 0.0
05/06:30pm 18.1 12.2 7.5 50 5.3 SSW 28 35 15 19 1022.0 1022.0 0.0
05/06:00pm 18.6 11.9 7.4 48 5.6 SSW 32 41 17 22 1021.8 1021.8 0.0
05/05:30pm 19.4 13.1 7.5 46 6.0 SSW 30 39 16 21 1021.6 1021.6 0.0
05/05:00pm 19.8 14.1 6.9 43 6.5 S 26 39 14 21 1021.5 1021.5 0.0
05/04:30pm 20.0 13.9 6.4 41 6.8 SSW 28 39 15 21 1022.0 1022.0 0.0
05/04:00pm 20.2 15.1 6.2 40 7.0 SSW 22 32 12 17 1022.0 1022.0 0.0
05/03:30pm 20.7 16.1 5.5 37 7.5 SSW 19 32 10 17 1022.2 1022.2 0.0
05/03:00pm 21.0 16.4 5.8 37 7.5 SSW 19 26 10 14 1022.6 1022.6 0.0
05/02:30pm 20.5 14.8 6.8 41 6.9 SW 26 35 14 19 1022.9 1022.9 0.0
05/02:00pm 20.4 15.9 6.0 39 7.2 SE 19 35 10 19 1022.7 1022.7 0.0
05/01:30pm 20.4 16.3 6.4 40 7.0 SSE 17 30 9 16 1023.2 1023.2 0.0
05/01:00pm 20.8 16.4 6.7 40 7.1 S 19 30 10 16 1023.4 1023.4 0.0
05/12:30pm 20.2 14.8 6.2 40 7.0 SSE 24 33 13 18 1023.7 1023.7 0.0
05/12:00pm 19.1 14.2 6.9 45 6.1 S 22 35 12 19 1024.2 1024.2 0.0
05/11:30am 19.3 13.8 6.1 42 6.5 SSE 24 44 13 24 1024.5 1024.5 0.0
05/11:00am 18.2 12.7 6.1 45 6.0 S 24 33 13 18 1024.4 1024.4 0.0
05/10:30am 18.1 12.3 6.3 46 5.8 SSE 26 39 14 21 1024.5 1024.5 0.0
05/10:00am 17.4 11.5 6.0 47 5.6 S 26 35 14 19 1024.1 1024.1 0.0
05/09:30am 17.2 11.3 7.3 52 4.9 SSE 28 37 15 20 1023.8 1023.8 0.0
05/09:00am 15.9 12.1 7.4 57 4.2 S 17 22 9 12 1023.6 1023.6 0.0
05/08:30am 15.0 11.0 6.8 58 4.0 S 17 20 9 11 1022.9 1022.9 0.0
05/08:00am 13.5 10.2 6.6 63 3.3 SSW 13 17 7 9 1022.8 1022.8 0.0
05/07:30am 12.5 9.3 6.8 68 2.7 S 13 17 7 9 1022.4 1022.4 0.0
05/07:00am 13.6 11.1 6.7 63 3.3 SSW 9 11 5 6 1021.9 1021.9 0.0
05/06:30am 13.0 9.5 7.0 67 2.9 S 15 19 8 10 1022.0 1022.0 0.0
05/06:00am 13.7 9.6 7.9 68 2.9 S 19 26 10 14 1021.6 1021.6 0.0
05/05:30am 14.4 10.3 8.8 69 2.8 S 20 28 11 15 1021.0 1021.0 0.0
05/05:00am 15.0 11.1 8.7 66 3.2 S 19 26 10 14 1020.6 1020.6 0.0
05/04:30am 15.4 11.4 8.2 62 3.6 SSW 19 26 10 14 1020.5 1020.5 0.0
05/04:00am 15.3 11.1 8.3 63 3.5 SSW 20 24 11 13 1020.5 1020.5 0.0
05/03:30am 15.6 10.7 8.4 62 3.6 SSW 24 33 13 18 1020.4 1020.4 0.0
05/03:00am 15.2 11.6 9.8 70 2.8 SSW 19 26 10 14 1020.1 1020.1 0.0
05/02:30am 16.3 10.9 9.5 64 3.5 SSW 28 41 15 22 1020.0 1020.0 0.0
05/02:00am 16.4 13.1 11.6 73 2.6 SSW 20 28 11 15 1020.1 1020.1 0.0
05/01:30am 16.4 13.4 11.8 74 2.5 SSW 19 24 10 13 1020.0 1020.0 0.0
05/01:00am 16.3 12.8 12.3 77 2.2 SSW 22 30 12 16 1019.9 1019.9 0.0
05/12:30am 16.3 12.7 13.2 82 1.7 SSW 24 32 13 17 1019.6 1019.6 0.0
05/12:00am 16.1 13.9 14.3 89 1.0 SSW 19 28 10 15 1019.4 1019.4 0.0
 
Date/Time
CDT
Temp
°C
App
Temp
°C
Dew
Point
Rel
Hum
%
Delta-T
°C
Wind Press
QNH
hPa
Press
MSL
hPa
Rain
since 9 am
mm
Dir
 
Spd
km/h
Gust
km/h
Spd
kts
Gust
kts
04/11:30pm 16.4 13.9 14.2 87 1.2 SW 20 26 11 14 1019.2 1019.2 0.0
04/11:00pm 16.0 12.3 14.0 88 1.1 WSW 26 35 14 19 1019.1 1019.1 0.0
04/10:44pm 17.1 12.8 13.2 78 2.2 WSW 28 43 15 23 1018.9 1018.9 0.0
04/10:30pm 17.0 14.6 12.7 76 2.4 WSW 17 22 9 12 1018.9 1018.9 0.0
04/10:00pm 17.0 14.9 12.3 74 2.6 WNW 15 17 8 9 1018.5 1018.5 0.0
04/09:30pm 17.1 14.7 12.6 75 2.5 WSW 17 22 9 12 1018.1 1018.1 0.0
04/09:00pm 17.9 14.9 12.6 71 2.9 WSW 20 30 11 16 1017.9 1017.9 0.0
04/08:30pm 18.1 15.1 12.5 70 3.1 W 20 28 11 15 1017.6 1017.6 0.0
04/08:00pm 17.8 13.6 12.3 70 3.0 WSW 26 37 14 20 1017.4 1017.4 0.0
04/07:30pm 18.8 13.3 12.5 67 3.5 WSW 33 46 18 25 1017.2 1017.2 0.0
04/07:00pm 20.1 16.0 11.3 57 4.8 WSW 24 35 13 19 1016.7 1016.7 0.0
04/06:30pm 20.1 15.2 11.3 57 4.8 WSW 28 37 15 20 1016.6 1016.6 0.0
04/06:00pm 20.2 14.7 11.9 59 4.6 W 32 46 17 25 1016.6 1016.6 0.0
04/05:30pm 21.0 15.2 11.6 55 5.2 WSW 33 46 18 25 1016.4 1016.4 0.0
04/05:00pm 20.9 16.5 11.8 56 5.1 WNW 26 37 14 20 1016.1 1016.1 0.0
04/04:30pm 22.0 17.1 12.5 54 5.4 WNW 30 37 16 20 1016.3 1016.3 0.0
04/04:00pm 22.2 18.6 11.9 52 5.8 W 22 37 12 20 1016.4 1016.4 0.0
04/03:30pm 21.8 18.3 12.1 54 5.5 W 22 35 12 19 1016.6 1016.6 0.0
04/03:00pm 22.0 18.1 12.0 53 5.6 W 24 35 13 19 1017.1 1017.1 0.0
04/02:30pm 22.1 18.8 11.5 51 5.9 W 20 28 11 15 1017.4 1017.4 0.0
04/02:00pm 21.9 17.9 10.4 48 6.3 WNW 22 35 12 19 1017.7 1017.7 0.0
04/01:30pm 21.8 17.4 10.3 48 6.3 WSW 24 37 13 20 1017.9 1017.9 0.0
04/01:00pm 21.6 17.4 9.8 47 6.4 W 22 35 12 19 1018.2 1018.2 0.0
04/12:30pm 21.5 17.8 10.0 48 6.2 WSW 20 28 11 15 1018.7 1018.7 0.0
04/12:00pm 20.8 16.7 10.0 50 5.8 W 22 30 12 16 1019.0 1019.0 0.0
04/11:30am 20.2 15.7 10.0 52 5.5 W 24 30 13 16 1019.1 1019.1 0.0
04/11:00am 19.8 15.7 10.0 53 5.3 W 22 32 12 17 1019.0 1019.0 0.0
04/10:30am 19.4 14.9 9.9 54 5.1 W 24 30 13 16 1018.9 1018.9 0.0
04/10:00am 19.1 15.0 10.1 56 4.8 WSW 22 30 12 16 1018.8 1018.8 0.0
04/09:30am 18.2 15.8 10.1 59 4.3 W 13 17 7 9 1019.0 1019.0 0.0
04/09:00am 17.2 14.4 9.9 62 3.8 NW 15 17 8 9 1018.8 1018.8 0.0
04/08:30am 15.2 13.2 10.2 72 2.6 NNW 11 13 6 7 1018.9 1018.9 0.0
04/08:00am 12.7 11.4 9.9 83 1.4 NW 7 11 4 6 1019.0 1019.0 0.0
04/07:30am 11.5 9.3 9.2 86 1.1 NW 11 13 6 7 1018.7 1018.7 0.0
04/07:00am 9.6 7.8 7.9 89 0.8 WNW 7 9 4 5 1018.3 1018.3 0.0
04/06:30am 8.6 6.5 6.7 88 0.9 W 7 11 4 6 1018.2 1018.2 0.0
04/06:00am 8.6 6.7 7.4 92 0.6 WNW 7 11 4 6 1018.2 1018.2 0.0
04/05:30am 9.9 7.7 7.7 86 1.1 WNW 9 11 5 6 1017.9 1017.9 0.0
04/05:00am 9.4 7.5 7.5 88 0.9 WNW 7 7 4 4 1017.8 1017.8 0.0
04/04:30am 10.0 8.3 8.3 89 0.8 W 7 9 4 5 1017.7 1017.7 0.0
04/04:00am 9.8 7.2 7.9 88 0.9 W 11 11 6 6 1017.8 1017.8 0.0
04/03:30am 10.4 8.3 8.2 86 1.1 W 9 11 5 6 1017.9 1017.9 0.0
04/03:00am 10.6 8.1 8.4 86 1.1 W 11 13 6 7 1018.3 1018.3 0.0
04/02:30am 10.3 7.8 8.4 88 0.9 WSW 11 13 6 7 1018.6 1018.6 0.0
04/02:00am 10.4 8.0 8.5 88 0.9 WSW 11 13 6 7 1019.1 1019.1 0.0
04/01:30am 10.7 8.3 8.6 87 1.0 WSW 11 13 6 7 1019.4 1019.4 0.0
04/01:00am 9.9 7.0 8.2 89 0.8 WSW 13 15 7 8 1019.3 1019.3 0.0
04/12:30am 11.4 9.6 9.5 88 1.0 WSW 9 11 5 6 1019.6 1019.6 0.0
04/12:00am 12.1 10.4 9.7 85 1.2 WSW 9 11 5 6 1019.9 1019.9 0.0
 
Date/Time
CDT
Temp
°C
App
Temp
°C
Dew
Point
Rel
Hum
%
Delta-T
°C
Wind Press
QNH
hPa
Press
MSL
hPa
Rain
since 9 am
mm
Dir
 
Spd
km/h
Gust
km/h
Spd
kts
Gust
kts
03/11:30pm 12.4 11.1 9.8 84 1.3 WSW 7 9 4 5 1020.0 1020.0 0.0
03/11:00pm 13.0 11.3 9.8 81 1.6 WSW 9 11 5 6 1020.1 1020.1 0.0
03/10:30pm 14.4 12.9 10.6 78 2.0 SSW 9 11 5 6 1020.0 1020.0 0.0
03/10:00pm 14.5 12.9 10.3 76 2.2 SSW 9 13 5 7 1019.8 1019.8 0.0
03/09:30pm 15.2 13.3 10.4 73 2.5 SSW 11 17 6 9 1019.5 1019.5 0.0
03/09:00pm 15.7 13.7 10.2 70 2.9 SSW 11 15 6 8 1019.5 1019.5 0.0
03/08:30pm 16.8 14.5 10.4 66 3.4 S 13 17 7 9 1019.1 1019.1 0.0
03/08:00pm 17.8 14.1 10.2 61 4.0 SSW 20 26 11 14 1018.6 1018.6 0.0
03/07:30pm 18.9 15.1 9.7 55 4.9 S 20 28 11 15 1018.3 1018.3 0.0
03/07:00pm 19.9 15.6 9.5 51 5.5 S 22 32 12 17 1017.9 1017.9 0.0
03/06:30pm 20.4 16.0 10.5 53 5.4 SSE 24 33 13 18 1017.7 1017.7 0.0
03/06:00pm 21.1 17.1 10.6 51 5.7 SSE 22 32 12 17 1017.7 1017.7 0.0
03/05:30pm 21.1 16.9 11.2 53 5.5 SE 24 35 13 19 1017.6 1017.6 0.0
03/05:00pm 21.8 17.9 10.9 50 6.0 SE 22 32 12 17 1017.6 1017.6 0.0
03/04:30pm 21.7 17.6 10.2 48 6.2 SSE 22 32 12 17 1017.4 1017.4 0.0
03/04:00pm 21.8 17.8 10.6 49 6.1 SSE 22 33 12 18 1017.4 1017.4 0.0
03/03:30pm 23.2 19.7 10.3 44 7.1 S 19 30 10 16 1017.8 1017.8 0.0
03/03:00pm 23.4 19.9 10.8 45 7.0 SSE 20 28 11 15 1018.2 1018.2 0.0
03/02:30pm 22.6 17.9 10.7 47 6.5 SE 26 33 14 18 1018.5 1018.5 0.0
03/02:00pm 21.6 17.0 9.5 46 6.5 SE 24 35 13 19 1018.3 1018.3 0.0
03/01:30pm 22.6 18.6 10.4 46 6.7 SE 22 32 12 17 1018.7 1018.7 0.0
03/01:00pm 21.1 16.4 9.4 47 6.2 SE 24 35 13 19 1019.0 1019.0 0.0
03/12:30pm 21.4 16.7 9.3 46 6.4 SE 24 33 13 18 1019.4 1019.4 0.0
03/12:00pm 21.1 16.9 8.4 44 6.6 SE 20 35 11 19 1019.7 1019.7 0.0
03/11:30am 21.1 16.8 9.4 47 6.2 S 22 32 12 17 1020.0 1020.0 0.0
03/11:00am 20.7 15.9 9.0 47 6.2 SSE 24 32 13 17 1020.1 1020.1 0.0
03/10:30am 20.1 16.5 9.9 52 5.4 SSE 19 26 10 14 1019.9 1019.9 0.0
03/10:00am 20.1 16.2 10.8 55 5.1 S 22 30 12 16 1019.5 1019.5 0.0
03/09:30am 18.0 14.4 10.4 61 4.0 S 20 30 11 16 1019.7 1019.7 0.0
03/09:00am 17.5 15.1 11.5 68 3.3 SSE 15 20 8 11 1019.4 1019.4 0.0
03/08:30am 16.0 14.2 12.0 77 2.2 S 13 15 7 8 1019.2 1019.2 0.0
03/08:00am 13.1 11.4 11.2 88 1.0 S 11 13 6 7 1019.0 1019.0 0.0
03/07:30am 11.7 9.7 10.3 91 0.7 SSW 11 13 6 7 1018.6 1018.6 0.0
03/07:00am 10.8 8.9 9.2 90 0.8 SSW 9 11 5 6 1018.2 1018.2 0.0

Other Formats:

Comma delimited format used in spreadsheet applications
http://www.bom.gov.au/fwo/IDS60801/IDS60801.95807.axf

JavaScript Object Notation format (JSON) in row-major order
http://www.bom.gov.au/fwo/IDS60801/IDS60801.95807.json